Time;durP1;ratioP1;P1;durP2;ratioP2;P2;SDS_P1;SDS_P2;PMS_P1;PMS_P2;Temp;Humidity;BMP_temperature;BMP_pressure;BME280_temperature;BME280_humidity;BME280_pressure;Samples;Min_cycle;Max_cycle;Signal;HPM_P1;HPM_P2
2021/08/30 00:00:51;;;;;;;5.70;4.40;;;;;;;27.28;47.42;100178.20;111083;1229;61034;-84
2021/08/30 00:03:34;;;;;;;6.40;4.70;;;;;;;27.27;47.37;100177.15;111160;1233;61318;-86
2021/08/30 00:06:29;;;;;;;5.70;4.50;;;;;;;27.27;47.39;100174.98;111137;1233;71169;-87
2021/08/30 00:09:14;;;;;;;6.30;4.90;;;;;;;27.27;47.33;100166.35;111262;1232;66696;-87
2021/08/30 00:11:53;;;;;;;5.50;4.40;;;;;;;27.27;47.34;100156.39;111397;1231;61031;-84
2021/08/30 00:14:39;;;;;;;5.90;4.30;;;;;;;27.27;47.38;100148.63;111381;1230;60976;-83
2021/08/30 00:17:15;;;;;;;5.20;4.20;;;;;;;27.27;47.44;100152.29;111387;1231;64951;-83
2021/08/30 00:19:52;;;;;;;6.60;4.30;;;;;;;27.27;47.43;100151.03;111364;1230;67149;-85
2021/08/30 00:22:21;;;;;;;5.70;4.80;;;;;;;27.26;47.37;100146.53;112320;1216;61656;-89
2021/08/30 00:25:06;;;;;;;;;;;;;;;;;;;;;
2021/08/30 00:27:35;;;;;;;5.60;4.40;;;;;;;27.26;47.29;100138.30;112541;1222;64629;-86
2021/08/30 00:30:32;;;;;;;6.00;4.00;;;;;;;27.25;47.22;100141.91;112467;1225;64470;-91
2021/08/30 00:33:11;;;;;;;5.90;4.50;;;;;;;27.25;47.30;100144.69;112395;1224;61056;-85
2021/08/30 00:36:24;;;;;;;;;;;;;;;;;;;;;
2021/08/30 00:39:10;;;;;;;5.20;4.30;;;;;;;27.24;47.15;100154.14;112557;1223;63818;-86
2021/08/30 00:41:39;;;;;;;5.20;4.20;;;;;;;27.24;47.19;100160.48;112226;1223;65733;-87
2021/08/30 00:44:45;;;;;;;;;;;;;;;27.25;47.36;100164.23;112256;1223;59106;-88
2021/08/30 00:47:25;;;;;;;5.20;4.30;;;;;;;27.22;47.31;100164.64;112556;1222;61092;-88
2021/08/30 00:50:11;;;;;;;5.20;4.10;;;;;;;27.23;47.30;100167.85;112462;1223;64433;-80
2021/08/30 00:52:51;;;;;;;6.30;4.20;;;;;;;27.23;47.23;100165.89;112540;1223;65747;-87
2021/08/30 00:55:32;;;;;;;5.20;4.00;;;;;;;27.23;47.31;100166.77;112572;1222;61165;-89
2021/08/30 00:58:03;;;;;;;5.70;4.00;;;;;;;27.22;47.34;100168.25;112499;1223;61597;-80
2021/08/30 01:00:35;;;;;;;5.00;3.90;;;;;;;27.23;47.39;100165.72;112270;1222;65063;-85
2021/08/30 01:03:15;;;;;;;4.90;3.90;;;;;;;27.22;47.12;100166.09;112384;1223;65805;-86
2021/08/30 01:06:03;;;;;;;5.80;4.00;;;;;;;27.22;47.15;100160.54;112569;1219;61037;-87
2021/08/30 01:08:46;;;;;;;;;;;;;;;27.21;47.08;100160.23;112510;1222;60983;-84
2021/08/30 01:11:40;;;;;;;4.50;3.70;;;;;;;27.20;47.05;100162.77;112574;1222;63789;-88
2021/08/30 01:14:19;;;;;;;5.00;3.90;;;;;;;27.20;47.14;100169.48;112343;1224;65640;-85
2021/08/30 01:16:48;;;;;;;5.10;4.00;;;;;;;27.19;47.22;100167.52;112279;1224;60959;-85
2021/08/30 01:19:34;;;;;;;4.90;4.10;;;;;;;27.20;47.16;100167.95;112398;1225;60995;-87
2021/08/30 01:22:05;;;;;;;4.90;3.70;;;;;;;27.20;47.24;100171.61;112387;1224;63588;-87
2021/08/30 01:24:45;;;;;;;;;;;;;;;;;;;;;
2021/08/30 01:27:24;;;;;;;5.80;3.40;;;;;;;27.20;47.04;100188.79;112593;1222;61285;-87
2021/08/30 01:29:58;;;;;;;5.30;3.80;;;;;;;27.20;47.22;100184.98;112527;1222;61463;-87
2021/08/30 01:32:44;;;;;;;4.50;3.50;;;;;;;27.20;47.17;100183.16;112230;1224;64776;-90
2021/08/30 01:35:58;;;;;;;5.30;3.70;;;;;;;27.20;47.07;100182.33;112560;1222;65744;-85
2021/08/30 01:38:50;;;;;;;5.40;3.20;;;;;;;27.19;47.13;100182.41;112066;1225;60982;-85
2021/08/30 01:41:38;;;;;;;4.50;3.60;;;;;;;27.19;47.22;100187.98;112036;1222;61484;-88
2021/08/30 01:44:32;;;;;;;4.90;4.00;;;;;;;27.19;47.15;100189.76;112115;1217;65122;-89
2021/08/30 01:47:18;;;;;;;4.50;3.50;;;;;;;27.19;47.03;100183.66;111740;1221;66761;-88
2021/08/30 01:50:14;;;;;;;5.20;3.60;;;;;;;27.19;46.98;100185.09;111741;1228;61136;-87
2021/08/30 01:52:59;;;;;;;4.70;3.40;;;;;;;27.18;47.06;100185.36;111749;1221;61016;-83
2021/08/30 01:55:54;;;;;;;4.70;3.40;;;;;;;27.19;47.05;100188.91;111770;1228;63723;-88
2021/08/30 02:01:14;;;;;;;4.20;3.30;;;;;;;27.18;46.80;100192.57;111400;1231;61491;-85
2021/08/30 02:03:54;;;;;;;;;;;;;;;;;;;;;
2021/08/30 02:06:50;;;;;;;5.60;3.60;;;;;;;27.18;46.89;100197.82;111509;1231;62669;-84
2021/08/30 02:09:36;;;;;;;4.70;3.60;;;;;;;27.18;46.90;100199.27;111287;1232;65710;-85
2021/08/30 02:12:23;;;;;;;4.30;3.40;;;;;;;27.17;46.89;100200.42;111002;1234;61159;-83
2021/08/30 02:15:09;;;;;;;;;;;;;;;;;;;;;
2021/08/30 02:17:41;;;;;;;4.20;3.30;;;;;;;27.18;46.93;100196.61;110978;1232;65007;-88
2021/08/30 02:20:33;;;;;;;6.10;3.40;;;;;;;27.17;46.98;100195.82;111209;1232;66854;-86
2021/08/30 02:23:38;;;;;;;;;;;;;;;;;;;;;
2021/08/30 02:26:14;;;;;;;4.70;3.50;;;;;;;27.17;46.85;100208.05;111650;1228;61330;-89
2021/08/30 02:28:57;;;;;;;4.50;3.20;;;;;;;27.17;46.90;100205.88;111631;1229;63770;-85
2021/08/30 02:31:45;;;;;;;;;;;;;;;;;;;;;
2021/08/30 02:34:12;;;;;;;6.40;3.40;;;;;;;27.17;46.90;100212.21;111446;1228;61034;-83
2021/08/30 02:36:40;;;;;;;5.30;3.50;;;;;;;27.17;46.70;100213.70;111483;1228;60985;-83
2021/08/30 02:39:16;;;;;;;5.20;3.60;;;;;;;27.17;46.67;100204.45;111595;1227;64623;-84
2021/08/30 02:41:42;;;;;;;5.30;3.20;;;;;;;27.17;46.60;100209.13;111782;1222;65742;-84
2021/08/30 02:44:17;;;;;;;5.20;3.30;;;;;;;27.17;46.58;100208.39;111742;1225;61145;-83
2021/08/30 02:46:52;;;;;;;4.60;3.50;;;;;;;27.17;46.70;100206.98;111863;1221;61050;-83
2021/08/30 02:49:40;;;;;;;4.40;3.10;;;;;;;27.17;46.61;100206.86;112707;1219;64891;-85
2021/08/30 02:52:14;;;;;;;4.90;3.10;;;;;;;27.16;46.45;100207.43;112930;1214;66838;-86
2021/08/30 02:54:58;;;;;;;4.50;3.10;;;;;;;27.16;46.48;100212.98;112961;1212;60975;-86
2021/08/30 02:57:42;;;;;;;4.50;3.20;;;;;;;27.16;46.47;100221.14;112972;1218;61051;-85
2021/08/30 03:00:30;;;;;;;4.50;3.30;;;;;;;27.15;46.53;100229.55;112960;1210;63736;-83
2021/08/30 03:03:09;;;;;;;4.60;3.30;;;;;;;27.16;46.55;100232.96;112972;1218;66979;-88
2021/08/30 03:05:38;;;;;;;;;;;;;;;27.15;46.52;100229.95;112981;1218;61082;-87
2021/08/30 03:08:25;;;;;;;4.10;3.20;;;;;;;27.13;46.48;100230.55;112989;1211;61005;-87
2021/08/30 03:11:19;;;;;;;4.60;2.90;;;;;;;27.13;46.55;100239.02;112931;1219;64843;-90
2021/08/30 03:13:48;;;;;;;4.30;2.90;;;;;;;27.13;46.39;100239.42;112949;1219;66784;-85
2021/08/30 03:16:34;;;;;;;4.90;3.10;;;;;;;27.13;46.36;100234.00;112986;1210;60941;-85
2021/08/30 03:19:13;;;;;;;5.40;3.10;;;;;;;27.13;46.24;100237.09;112968;1210;59961;-87
2021/08/30 03:22:04;;;;;;;4.00;3.10;;;;;;;27.13;46.11;100239.05;112907;1211;64527;-85
2021/08/30 03:24:55;;;;;;;4.00;2.90;;;;;;;27.12;46.26;100234.82;112960;1217;67096;-83
2021/08/30 03:27:56;;;;;;;6.30;3.50;;;;;;;27.12;46.27;100239.64;112979;1210;62171;-85
2021/08/30 03:30:47;;;;;;;;;;;;;;;;;;;;;
2021/08/30 03:33:29;;;;;;;4.30;2.90;;;;;;;27.11;46.31;100254.55;112924;1219;64610;-84
2021/08/30 03:36:12;;;;;;;3.90;2.70;;;;;;;27.11;46.25;100258.72;112888;1218;66027;-87
2021/08/30 03:39:01;;;;;;;3.50;2.70;;;;;;;27.11;46.32;100259.96;112974;1211;60963;-83
2021/08/30 03:41:50;;;;;;;4.70;2.90;;;;;;;27.12;46.06;100263.70;112937;1212;61040;-89
2021/08/30 03:44:18;;;;;;;4.00;3.00;;;;;;;27.11;45.99;100273.31;112950;1218;72628;-88
2021/08/30 03:46:54;;;;;;;5.40;3.10;;;;;;;27.12;46.16;100270.56;112975;1210;66898;-89
2021/08/30 03:49:46;;;;;;;4.10;2.70;;;;;;;27.11;46.04;100273.70;112928;1215;61066;-84
2021/08/30 03:52:32;;;;;;;4.00;3.00;;;;;;;27.11;46.08;100279.89;112982;1218;61044;-86
2021/08/30 03:54:58;;;;;;;4.50;3.10;;;;;;;27.10;46.14;100281.91;112969;1218;64772;-83
2021/08/30 03:57:40;;;;;;;4.30;2.90;;;;;;;27.10;46.13;100278.32;112977;1210;65729;-82
2021/08/30 04:00:28;;;;;;;3.80;2.80;;;;;;;27.10;45.96;100277.41;112973;1210;61172;-89
2021/08/30 04:03:14;;;;;;;3.30;2.70;;;;;;;27.10;45.95;100281.98;112657;1221;60997;-87
2021/08/30 04:06:00;;;;;;;;;;;;;;;;;;;;;
2021/08/30 04:08:58;;;;;;;5.00;2.80;;;;;;;27.09;45.92;100277.94;112268;1221;66836;-86
2021/08/30 04:11:44;;;;;;;;;;;;;;;;;;;;;
2021/08/30 04:14:26;;;;;;;;;;;;;;;;;;;;;
2021/08/30 04:17:04;;;;;;;5.00;2.90;;;;;;;27.08;45.55;100274.07;112523;1224;64700;-83
2021/08/30 04:20:02;;;;;;;3.90;2.50;;;;;;;27.06;45.45;100280.85;111739;1227;64589;-86
2021/08/30 04:22:51;;;;;;;5.00;2.90;;;;;;;27.06;45.33;100274.23;111747;1222;61872;-87
2021/08/30 04:25:36;;;;;;;3.50;2.80;;;;;;;27.05;45.38;100275.21;111812;1227;61131;-83
2021/08/30 04:28:26;;;;;;;4.50;2.50;;;;;;;27.05;45.18;100277.41;111753;1228;64847;-89
2021/08/30 04:31:12;;;;;;;4.40;2.50;;;;;;;27.05;45.26;100285.17;111591;1231;66878;-88
2021/08/30 04:33:49;;;;;;;6.40;2.60;;;;;;;27.05;45.03;100283.55;111400;1223;61234;-91
2021/08/30 04:36:37;;;;;;;4.20;2.60;;;;;;;27.05;44.99;100287.36;111582;1230;61014;-88
2021/08/30 04:39:28;;;;;;;3.70;2.70;;;;;;;27.04;44.88;100286.86;111424;1231;63669;-85
2021/08/30 04:42:16;;;;;;;6.00;2.60;;;;;;;27.04;44.88;100285.06;111199;1224;66912;-86
2021/08/30 04:44:52;;;;;;;4.60;2.60;;;;;;;27.05;44.85;100288.45;111207;1231;61220;-87
2021/08/30 04:47:28;;;;;;;4.50;2.80;;;;;;;27.04;44.84;100293.77;111191;1231;60992;-85
2021/08/30 04:50:18;;;;;;;3.90;2.50;;;;;;;27.04;44.83;100298.67;111317;1231;63611;-85
2021/08/30 04:53:06;;;;;;;4.80;2.70;;;;;;;27.03;44.74;100298.17;111025;1234;66935;-88
2021/08/30 04:56:12;;;;;;;5.70;2.50;;;;;;;27.04;44.63;100298.67;111053;1234;60966;-85
2021/08/30 04:58:56;;;;;;;4.90;2.50;;;;;;;27.03;44.45;100299.99;111348;1231;61018;-83
2021/08/30 05:01:35;;;;;;;4.00;2.50;;;;;;;27.03;44.34;100306.12;111343;1231;63759;-86
2021/08/30 05:04:12;;;;;;;;;;;;;;;27.03;44.47;100307.75;111215;1231;65878;-87
2021/08/30 05:07:01;;;;;;;3.90;2.40;;;;;;;27.01;44.48;100305.99;111356;1231;61460;-92
2021/08/30 05:09:50;;;;;;;4.50;2.50;;;;;;;27.00;44.30;100306.98;111549;1228;60999;-90
2021/08/30 05:12:39;;;;;;;4.10;2.40;;;;;;;27.00;44.35;100309.42;111768;1227;63819;-86
2021/08/30 05:15:24;;;;;;;4.70;2.60;;;;;;;26.99;44.18;100309.71;111733;1228;65706;-83
2021/08/30 05:17:50;;;;;;;35.90;4.40;;;;;;;26.98;44.00;100309.61;111720;1228;61053;-87
2021/08/30 05:20:43;;;;;;;47.20;5.00;;;;;;;26.98;43.91;100311.98;112198;1223;60952;-85
2021/08/30 05:23:52;;;;;;;59.90;5.50;;;;;;;26.96;43.92;100313.25;112494;1223;64469;-88
2021/08/30 05:26:18;;;;;;;30.60;4.10;;;;;;;26.95;43.81;100311.72;111943;1226;65633;-89
2021/08/30 05:29:32;;;;;;;38.70;4.40;;;;;;;26.94;43.81;100312.63;111439;1230;61391;-88
2021/08/30 05:32:31;;;;;;;34.00;4.50;;;;;;;26.93;43.63;100312.77;111771;1228;60969;-85
2021/08/30 05:35:17;;;;;;;32.90;4.20;;;;;;;26.93;43.61;100317.10;111770;1228;63627;-84
2021/08/30 05:37:54;;;;;;;26.80;3.80;;;;;;;26.93;43.60;100314.94;111738;1227;65800;-86
2021/08/30 05:41:05;;;;;;;21.70;4.00;;;;;;;26.93;43.70;100307.93;111725;1228;60916;-87
2021/08/30 05:43:53;;;;;;;20.80;3.90;;;;;;;26.92;43.43;100306.60;111749;1228;61123;-86
2021/08/30 05:46:39;;;;;;;16.90;3.90;;;;;;;26.92;43.49;100308.39;111740;1228;63895;-83
2021/08/30 05:49:15;;;;;;;17.00;3.50;;;;;;;26.92;43.28;100310.92;111755;1228;65676;-91
2021/08/30 05:52:06;;;;;;;20.10;3.20;;;;;;;26.92;43.17;100314.35;111703;1228;61003;-89
2021/08/30 05:54:52;;;;;;;18.50;3.50;;;;;;;26.92;43.09;100313.27;111698;1228;60958;-86
2021/08/30 05:57:38;;;;;;;15.70;3.30;;;;;;;26.92;42.97;100310.35;111730;1220;63809;-84
2021/08/30 06:00:18;;;;;;;10.90;3.50;;;;;;;26.91;43.10;100311.50;111705;1228;66881;-88
2021/08/30 06:02:53;;;;;;;15.90;3.10;;;;;;;26.91;42.97;100311.70;111797;1225;61098;-92
2021/08/30 06:05:37;;;;;;;10.60;3.10;;;;;;;26.91;42.90;100313.33;111978;1225;60851;-87
2021/08/30 06:08:08;;;;;;;11.00;3.00;;;;;;;26.90;42.86;100316.65;112560;1222;63543;-84
2021/08/30 06:10:50;;;;;;;9.00;2.90;;;;;;;26.90;42.71;100323.52;112395;1216;67078;-82
2021/08/30 06:13:26;;;;;;;;;;;;;;;;;;;;;
2021/08/30 06:16:02;;;;;;;7.10;2.70;;;;;;;26.90;42.57;100325.41;112496;1221;60950;-86
2021/08/30 06:18:28;;;;;;;9.90;2.90;;;;;;;26.89;42.45;100329.23;112248;1214;64834;-82
2021/08/30 06:20:59;;;;;;;8.80;3.10;;;;;;;26.89;42.20;100332.27;112480;1214;61141;-84
2021/08/30 06:23:45;;;;;;;8.50;2.80;;;;;;;26.90;42.30;100335.80;112514;1222;60997;-85
2021/08/30 06:26:23;;;;;;;7.30;2.80;;;;;;;26.91;42.35;100333.23;112523;1221;60963;-80
2021/08/30 06:28:54;;;;;;;8.60;2.90;;;;;;;26.92;42.38;100335.65;112499;1222;63725;-82
2021/08/30 06:31:35;;;;;;;8.40;2.90;;;;;;;26.92;42.24;100333.77;112507;1221;65660;-85
2021/08/30 06:34:17;;;;;;;8.30;2.70;;;;;;;26.94;42.15;100335.83;112484;1215;60957;-83
2021/08/30 06:36:57;;;;;;;8.40;3.10;;;;;;;26.95;42.13;100344.53;112465;1216;60130;-83
2021/08/30 06:39:43;;;;;;;5.30;2.50;;;;;;;26.96;42.04;100346.43;112410;1222;63556;-88
2021/08/30 06:42:26;;;;;;;6.90;2.80;;;;;;;26.97;42.02;100348.71;112530;1221;65751;-88
2021/08/30 06:45:03;;;;;;;9.00;2.90;;;;;;;26.97;42.14;100351.35;112568;1221;61009;-83
2021/08/30 06:47:49;;;;;;;10.00;3.00;;;;;;;26.98;42.04;100354.69;112483;1222;61175;-80
2021/08/30 06:50:40;;;;;;;5.70;2.60;;;;;;;26.99;41.92;100360.24;112517;1221;63667;-83
2021/08/30 06:53:25;;;;;;;6.80;2.60;;;;;;;26.99;42.00;100365.80;112524;1221;65607;-83
2021/08/30 06:56:01;;;;;;;5.60;2.50;;;;;;;27.00;42.15;100364.30;112596;1221;60969;-79
2021/08/30 06:58:30;;;;;;;5.60;2.40;;;;;;;27.00;42.08;100370.40;112500;1222;60857;-84
2021/08/30 07:01:03;;;;;;;5.50;2.80;;;;;;;27.01;41.82;100372.13;112510;1222;72389;-89
2021/08/30 07:03:35;;;;;;;5.50;2.50;;;;;;;27.01;41.73;100374.43;112498;1221;65794;-84
2021/08/30 07:06:37;;;;;;;;;;;;;;;;;;;;;
2021/08/30 07:09:24;;;;;;;5.20;2.50;;;;;;;27.02;41.82;100380.84;112610;1217;61504;-86
2021/08/30 07:11:58;;;;;;;8.60;2.50;;;;;;;27.02;41.98;100384.23;112907;1211;63568;-83
2021/08/30 07:14:31;;;;;;;7.20;2.60;;;;;;;27.03;41.99;100385.63;112812;1212;65770;-84
2021/08/30 07:17:05;;;;;;;6.80;2.50;;;;;;;27.04;41.96;100385.91;112910;1210;60968;-90
2021/08/30 07:20:00;;;;;;;5.10;2.50;;;;;;;27.05;41.98;100382.55;112867;1217;60994;-86
2021/08/30 07:22:56;;;;;;;6.70;2.40;;;;;;;27.05;41.81;100382.89;112870;1210;63568;-89
2021/08/30 07:25:24;;;;;;;6.10;2.40;;;;;;;27.05;41.75;100384.17;112700;1212;66373;-87
2021/08/30 07:27:52;;;;;;;5.10;2.60;;;;;;;27.05;41.70;100383.80;112669;1213;61078;-83
2021/08/30 07:30:33;;;;;;;7.50;2.60;;;;;;;27.05;41.66;100388.23;112734;1219;61025;-83
2021/08/30 07:32:59;;;;;;;4.50;2.30;;;;;;;27.06;41.61;100386.23;112606;1219;63866;-84
2021/08/30 07:35:37;;;;;;;5.50;2.50;;;;;;;27.06;41.69;100382.54;112726;1212;65632;-83
2021/08/30 07:38:08;;;;;;;5.90;2.40;;;;;;;27.08;41.87;100388.54;112780;1211;61246;-84
2021/08/30 07:40:57;;;;;;;5.30;2.40;;;;;;;27.08;41.73;100388.17;112875;1214;60973;-84
2021/08/30 07:43:49;;;;;;;3.50;2.40;;;;;;;27.08;41.71;100391.92;112790;1211;64555;-86
2021/08/30 07:46:35;;;;;;;6.80;2.50;;;;;;;27.09;41.63;100397.83;112415;1223;75595;-88
2021/08/30 07:49:01;;;;;;;7.60;3.40;;;;;;;27.09;41.53;100393.66;112449;1216;62491;-83
2021/08/30 07:51:38;;;;;;;;;;;;;;;27.05;41.46;100395.29;112076;1217;60949;-84
2021/08/30 07:54:17;;;;;;;6.90;2.80;;;;;;;27.01;41.42;100399.02;112365;1215;64979;-82
2021/08/30 07:57:26;;;;;;;4.70;2.60;;;;;;;26.94;41.22;100402.03;112419;1216;64491;-80
2021/08/30 08:00:21;;;;;;;6.30;2.40;;;;;;;26.89;41.27;100404.02;112609;1219;61026;-79
2021/08/30 08:02:56;;;;;;;4.80;2.60;;;;;;;26.89;41.21;100407.94;112529;1214;61062;-82
2021/08/30 08:05:44;;;;;;;6.30;2.90;;;;;;;26.87;41.06;100403.66;112557;1222;65115;-87
2021/08/30 08:08:40;;;;;;;5.10;2.70;;;;;;;26.79;40.81;100409.02;112228;1216;67117;-84
2021/08/30 08:11:20;;;;;;;5.80;2.40;;;;;;;26.75;40.90;100411.76;112166;1217;60891;-85
2021/08/30 08:14:03;;;;;;;3.70;2.50;;;;;;;26.73;41.01;100410.73;112007;1224;61111;-84
2021/08/30 08:16:43;;;;;;;4.20;2.50;;;;;;;26.71;40.82;100404.89;111898;1216;63466;-83
2021/08/30 08:19:08;;;;;;;5.30;2.20;;;;;;;26.72;40.99;100405.00;111967;1217;66869;-83
2021/08/30 08:21:57;;;;;;;6.70;2.60;;;;;;;26.73;40.87;100405.30;111606;1227;61082;-84
2021/08/30 08:24:32;;;;;;;3.70;2.20;;;;;;;26.73;40.75;100402.96;112038;1223;60945;-82
2021/08/30 08:27:00;;;;;;;6.10;2.60;;;;;;;26.72;40.91;100400.50;112151;1217;64840;-85
2021/08/30 08:29:49;;;;;;;4.10;2.50;;;;;;;26.72;40.81;100399.45;112332;1215;64670;-88
2021/08/30 08:32:25;;;;;;;6.10;2.60;;;;;;;26.73;40.66;100397.70;112196;1219;61136;-83
2021/08/30 08:34:58;;;;;;;4.40;2.70;;;;;;;26.74;40.70;100399.96;111983;1223;60989;-82
2021/08/30 08:37:46;;;;;;;4.40;2.90;;;;;;;26.72;40.51;100401.59;112143;1223;72773;-83
2021/08/30 08:40:36;;;;;;;4.70;2.60;;;;;;;26.69;40.47;100400.94;112292;1223;66335;-90
2021/08/30 08:43:01;;;;;;;4.40;2.70;;;;;;;26.71;40.46;100405.83;112254;1223;61212;-90
2021/08/30 08:46:17;;;;;;;11.20;3.10;;;;;;;26.72;40.41;100412.54;112310;1219;61115;-87
2021/08/30 08:48:51;;;;;;;14.30;3.00;;;;;;;26.72;40.42;100414.21;111968;1225;65101;-83
2021/08/30 08:51:30;;;;;;;6.80;2.60;;;;;;;26.73;40.35;100415.37;111943;1225;65738;-86
2021/08/30 08:54:14;;;;;;;10.20;2.90;;;;;;;26.75;40.33;100417.55;111932;1224;60969;-84
2021/08/30 08:56:47;;;;;;;9.40;3.10;;;;;;;26.75;40.08;100416.97;111878;1219;61001;-85
2021/08/30 08:59:20;;;;;;;6.10;2.70;;;;;;;26.75;40.04;100416.42;112013;1219;72361;-86
2021/08/30 09:01:58;;;;;;;7.20;3.40;;;;;;;26.76;39.97;100415.63;112432;1216;75434;-84
2021/08/30 09:04:36;;;;;;;10.40;2.90;;;;;;;26.73;39.84;100416.82;112356;1216;60933;-82
2021/08/30 09:07:35;;;;;;;8.70;2.80;;;;;;;26.72;39.87;100421.78;112550;1221;61126;-85
2021/08/30 09:10:06;;;;;;;9.20;3.10;;;;;;;26.73;39.86;100422.26;112547;1221;63800;-86
2021/08/30 09:12:56;;;;;;;8.50;3.00;;;;;;;26.73;39.76;100426.53;112587;1221;66911;-91
2021/08/30 09:15:37;;;;;;;10.50;2.90;;;;;;;26.74;39.67;100430.64;112711;1213;61027;-87
2021/08/30 09:18:23;;;;;;;9.70;3.00;;;;;;;26.73;39.41;100425.31;112582;1222;60943;-84
2021/08/30 09:21:15;;;;;;;5.60;2.90;;;;;;;26.71;39.37;100424.92;112623;1212;71721;-81
2021/08/30 09:23:45;;;;;;;5.80;3.00;;;;;;;26.70;39.44;100421.24;112749;1212;73551;-82
2021/08/30 09:26:20;;;;;;;9.90;2.90;;;;;;;26.68;39.45;100421.79;112703;1210;60858;-82
2021/08/30 09:28:55;;;;;;;7.40;2.80;;;;;;;26.68;39.13;100422.15;112661;1211;60964;-82
2021/08/30 09:31:27;;;;;;;6.90;3.20;;;;;;;26.70;39.33;100421.44;112786;1210;72861;-82
2021/08/30 09:34:02;;;;;;;4.50;2.80;;;;;;;26.71;39.15;100427.14;112548;1212;65825;-83
2021/08/30 09:36:28;;;;;;;9.80;3.20;;;;;;;26.73;39.12;100423.89;112638;1210;60949;-83
2021/08/30 09:38:54;;;;;;;7.10;3.20;;;;;;;26.73;39.14;100423.12;112657;1212;61059;-82
2021/08/30 09:41:23;;;;;;;7.20;3.20;;;;;;;26.76;39.34;100425.70;112617;1213;61158;-82
2021/08/30 09:43:58;;;;;;;;;;;;;;;26.79;39.17;100423.83;112705;1210;66852;-82
2021/08/30 09:46:27;;;;;;;9.90;3.60;;;;;;;26.79;39.33;100418.08;112706;1218;61028;-82
2021/08/30 09:48:53;;;;;;;5.80;3.30;;;;;;;26.80;39.14;100418.64;112658;1210;61408;-82
2021/08/30 09:51:24;;;;;;;8.80;3.50;;;;;;;26.78;39.07;100421.37;112530;1214;59012;-82
2021/08/30 09:54:01;;;;;;;8.60;3.40;;;;;;;26.77;38.90;100413.36;112903;1217;74414;-82
2021/08/30 09:56:38;;;;;;;;;;;;;;;;;;;;;
2021/08/30 09:59:18;;;;;;;9.70;4.00;;;;;;;26.75;38.83;100419.36;112733;1211;61097;-81
2021/08/30 10:01:44;;;;;;;9.70;3.60;;;;;;;26.76;38.79;100418.19;112882;1217;64030;-84
2021/08/30 10:04:37;;;;;;;12.40;3.20;;;;;;;26.76;38.68;100416.92;112821;1217;65837;-83
2021/08/30 10:07:02;;;;;;;11.80;3.30;;;;;;;26.75;38.64;100413.89;112845;1210;61756;-87
2021/08/30 10:09:48;;;;;;;11.40;3.40;;;;;;;26.77;38.68;100423.67;112733;1212;60987;-85
2021/08/30 10:12:34;;;;;;;14.40;4.30;;;;;;;26.77;38.70;100422.57;112844;1210;64542;-82
2021/08/30 10:15:10;;;;;;;13.80;4.00;;;;;;;26.78;38.49;100421.20;112780;1217;66470;-82
2021/08/30 10:17:43;;;;;;;21.90;4.90;;;;;;;26.77;38.42;100420.74;112714;1210;60932;-83
2021/08/30 10:20:22;;;;;;;16.70;4.80;;;;;;;26.75;38.39;100421.66;112653;1212;61077;-82
2021/08/30 10:22:57;;;;;;;17.50;4.70;;;;;;;26.74;38.31;100425.52;113105;1210;72086;-82
2021/08/30 10:25:24;;;;;;;15.50;4.20;;;;;;;26.75;38.48;100419.73;112685;1212;65809;-82
2021/08/30 10:27:58;;;;;;;20.90;5.00;;;;;;;26.76;38.56;100421.20;112755;1218;61123;-83
2021/08/30 10:30:38;;;;;;;22.90;5.00;;;;;;;26.78;38.39;100423.02;112744;1210;61054;-83
2021/08/30 10:33:08;;;;;;;21.60;5.10;;;;;;;26.79;38.25;100419.45;112789;1210;64768;-85
2021/08/30 10:35:38;;;;;;;27.30;5.00;;;;;;;26.78;38.27;100417.98;112689;1212;74549;-83
2021/08/30 10:38:20;;;;;;;16.50;5.20;;;;;;;26.77;38.16;100415.87;112797;1217;60981;-86
2021/08/30 10:41:00;;;;;;;15.30;5.10;;;;;;;26.74;37.90;100418.02;112798;1210;61007;-89
2021/08/30 10:43:40;;;;;;;;;;;;;;;26.72;37.94;100419.31;112938;1210;63550;-86
2021/08/30 10:46:34;;;;;;;20.30;5.20;;;;;;;26.71;37.97;100422.42;112952;1210;65843;-85
2021/08/30 10:49:28;;;;;;;18.60;4.90;;;;;;;26.73;38.09;100419.05;112879;1218;60965;-83
2021/08/30 10:52:23;;;;;;;21.40;5.00;;;;;;;26.73;37.91;100415.53;112913;1217;60946;-84
2021/08/30 10:55:16;;;;;;;21.40;5.40;;;;;;;26.75;37.91;100422.79;112437;1216;63725;-88
2021/08/30 10:58:07;;;;;;;21.20;5.40;;;;;;;26.78;37.91;100424.33;112406;1220;66257;-84
2021/08/30 11:00:50;;;;;;;20.50;6.00;;;;;;;26.79;37.87;100417.91;112662;1213;60953;-84
2021/08/30 11:03:39;;;;;;;16.50;5.00;;;;;;;26.77;38.00;100415.92;112573;1213;61135;-83
2021/08/30 11:06:14;;;;;;;19.80;5.00;;;;;;;26.70;37.70;100420.84;112550;1213;63565;-86
2021/08/30 11:09:03;;;;;;;18.30;5.10;;;;;;;26.68;37.72;100427.98;112652;1220;66661;-91
2021/08/30 11:11:55;;;;;;;;;;;;;;;;;;;;;
2021/08/30 11:14:21;;;;;;;20.10;5.20;;;;;;;26.66;37.37;100416.82;112664;1215;60967;-87
2021/08/30 11:17:16;;;;;;;18.60;5.30;;;;;;;26.64;37.50;100420.60;112747;1213;61105;-88
2021/08/30 11:20:03;;;;;;;21.10;5.40;;;;;;;26.65;37.46;100423.25;112661;1221;65977;-85
2021/08/30 11:23:03;;;;;;;12.90;4.60;;;;;;;26.68;37.56;100425.60;112769;1213;61301;-84
2021/08/30 11:26:13;;;;;;;19.00;5.30;;;;;;;26.70;37.64;100423.46;112638;1213;60949;-84
2021/08/30 11:28:42;;;;;;;19.70;5.00;;;;;;;26.69;37.49;100421.52;112516;1213;63906;-83
2021/08/30 11:31:20;;;;;;;;;;;;;;;26.69;37.59;100421.18;112606;1214;67430;-82
2021/08/30 11:34:11;;;;;;;;;;;;;;;;;;;;;
2021/08/30 11:37:04;;;;;;;13.80;5.00;;;;;;;26.69;37.48;100423.20;112850;1217;60965;-85
2021/08/30 11:39:49;;;;;;;10.50;4.70;;;;;;;26.69;37.36;100423.33;112919;1217;64491;-82
2021/08/30 11:42:22;;;;;;;13.10;4.50;;;;;;;26.71;37.41;100419.59;112951;1217;66691;-84
2021/08/30 11:45:15;;;;;;;12.50;4.80;;;;;;;26.70;37.29;100424.15;112901;1217;60995;-91
2021/08/30 11:48:07;;;;;;;14.50;4.90;;;;;;;26.71;37.16;100424.10;112981;1217;60954;-85
2021/08/30 11:50:52;;;;;;;12.90;4.30;;;;;;;26.72;37.31;100422.84;112925;1211;72848;-82
2021/08/30 11:53:25;;;;;;;9.30;4.30;;;;;;;26.73;37.11;100418.64;112954;1210;65867;-84
2021/08/30 11:56:22;;;;;;;15.80;5.10;;;;;;;26.75;37.20;100413.18;112946;1214;60988;-88
2021/08/30 11:59:08;;;;;;;11.90;4.50;;;;;;;26.76;37.27;100411.80;112780;1220;60988;-86
2021/08/30 12:01:47;;;;;;;17.40;4.80;;;;;;;26.78;37.35;100411.52;112695;1213;64234;-89
2021/08/30 12:04:43;;;;;;;18.60;5.10;;;;;;;26.79;37.17;100419.14;112500;1213;75949;-86
2021/08/30 12:07:35;;;;;;;12.20;4.50;;;;;;;26.81;37.43;100418.44;112775;1220;61330;-86
2021/08/30 12:10:20;;;;;;;9.90;4.40;;;;;;;26.82;37.43;100411.42;112412;1214;61156;-83
2021/08/30 12:15:44;;;;;;;15.50;4.40;;;;;;;26.85;37.46;100407.30;112070;1224;74823;-88
2021/08/30 12:18:30;;;;;;;18.50;4.90;;;;;;;26.86;37.39;100407.88;112113;1224;61019;-83
2021/08/30 12:21:37;;;;;;;11.60;4.70;;;;;;;26.87;37.28;100404.00;111910;1219;60777;-85
2021/08/30 12:24:23;;;;;;;14.30;4.90;;;;;;;26.86;37.05;100403.93;111630;1228;64079;-81
2021/08/30 12:26:57;;;;;;;11.50;5.10;;;;;;;26.85;36.95;100404.02;111273;1231;74431;-84
2021/08/30 12:30:11;;;;;;;9.00;5.10;;;;;;;26.85;36.78;100402.23;111188;1230;61114;-83
2021/08/30 12:33:10;;;;;;;12.40;4.10;;;;;;;26.86;36.76;100406.86;111291;1231;61018;-86
2021/08/30 12:36:08;;;;;;;10.30;4.40;;;;;;;26.87;36.85;100406.37;110866;1232;73586;-83
2021/08/30 12:38:45;;;;;;;12.50;4.60;;;;;;;26.88;36.85;100407.86;111053;1231;66585;-83
2021/08/30 12:41:13;;;;;;;;;;;;;;;26.90;36.97;100405.54;111064;1224;60976;-85
2021/08/30 12:43:46;;;;;;;12.80;4.40;;;;;;;26.89;37.12;100402.70;111096;1231;62109;-84
2021/08/30 12:46:26;;;;;;;16.70;4.50;;;;;;;26.91;36.89;100402.34;111049;1231;72122;-88
2021/08/30 12:48:54;;;;;;;17.00;4.80;;;;;;;26.92;36.90;100399.95;111088;1231;75294;-84
2021/08/30 12:51:21;;;;;;;15.60;4.60;;;;;;;26.92;36.71;100399.40;111077;1225;61197;-90
2021/08/30 12:53:58;;;;;;;15.90;5.00;;;;;;;26.92;36.60;100396.11;111221;1222;60994;-84